North Adams, Massachusetts
Current Conditions -  °F | °C
As of 4:52 PM on Friday 24 Oct 2014 (Local Time) from KAQW Reporting Station
Overcast Overcast  
Wind Chill:   Ceiling: 1100
Heat Index:   Visibility: 10mi
Dew Point:   Wind: 10mph
Humidity: 90%   Direction: 280°W
Pressure: 29.79"   Gusts: NA
Location:  42.7°N, 73.11°W
Report Text: KAQW 242052Z AUTO 28009KT 10SM OVC011 07/06 A2979 RMK AO2 SLP092 T00720056 53003
Loading
Personal Weather Stations






























Interactive Weather Map
Tropical Storm Tracking
New forecast layout! Learn more

10-Day Weather Forecast

Advertisements
Track Severe Weather on mobile